createdAt,value
2022-07-29T00:00:40.184Z,21.10
2022-07-29T00:03:07.856Z,21.09
2022-07-29T00:05:35.406Z,21.07
2022-07-29T00:08:02.910Z,21.03
2022-07-29T00:10:31.854Z,20.98
2022-07-29T00:12:59.949Z,20.94
2022-07-29T00:15:27.752Z,20.92
2022-07-29T00:17:55.365Z,20.90
2022-07-29T00:20:22.886Z,20.89
2022-07-29T00:22:50.406Z,20.86
2022-07-29T00:25:18.001Z,20.83
2022-07-29T00:27:47.154Z,20.80
2022-07-29T00:30:14.968Z,20.77
2022-07-29T00:32:42.686Z,20.74
2022-07-29T00:35:28.223Z,20.74
2022-07-29T00:37:55.759Z,20.75
2022-07-29T00:40:23.771Z,20.75
2022-07-29T00:42:53.806Z,20.75
2022-07-29T00:45:22.849Z,20.75
2022-07-29T00:47:50.676Z,20.78
2022-07-29T00:50:18.793Z,20.78
2022-07-29T00:52:46.613Z,20.80
2022-07-29T00:55:15.535Z,20.82
2022-07-29T00:57:44.266Z,20.85
2022-07-29T01:00:16.390Z,20.85
2022-07-29T01:02:43.870Z,20.90
2022-07-29T01:05:13.431Z,20.91
2022-07-29T01:07:41.357Z,20.94
2022-07-29T01:10:11.381Z,20.98
2022-07-29T01:12:40.156Z,21.01
2022-07-29T01:15:09.771Z,21.02
2022-07-29T01:17:52.446Z,21.02
2022-07-29T01:20:31.508Z,21.01
2022-07-29T01:23:23.047Z,21.01
2022-07-29T01:26:03.221Z,20.99
2022-07-29T01:28:42.810Z,20.98
2022-07-29T01:31:12.469Z,20.97
2022-07-29T01:33:56.459Z,20.97
2022-07-29T01:36:29.297Z,20.94
2022-07-29T01:39:03.426Z,20.93
2022-07-29T01:41:35.976Z,20.92
2022-07-29T01:44:14.753Z,20.90
2022-07-29T01:46:48.032Z,20.88
2022-07-29T01:49:18.469Z,20.90
2022-07-29T01:51:51.166Z,20.93
2022-07-29T01:54:24.366Z,20.95
2022-07-29T01:56:53.552Z,20.96
2022-07-29T01:59:24.227Z,20.98
2022-07-29T02:01:55.363Z,21.01
2022-07-29T02:04:29.537Z,21.04
2022-07-29T02:07:00.841Z,21.04
2022-07-29T02:09:30.551Z,21.03
2022-07-29T02:11:59.451Z,20.99
2022-07-29T02:14:30.503Z,20.95
2022-07-29T02:17:00.280Z,20.93
2022-07-29T02:19:29.647Z,20.92
2022-07-29T02:21:59.575Z,20.89
2022-07-29T02:24:28.260Z,20.86
2022-07-29T02:26:58.261Z,20.84
2022-07-29T02:29:29.233Z,20.82
2022-07-29T04:41:34.551Z,19.97
2022-07-29T04:44:06.899Z,19.96
2022-07-29T04:46:34.960Z,20.01
2022-07-29T04:49:02.776Z,20.02
2022-07-29T04:51:30.381Z,20.02
2022-07-29T05:04:40.159Z,20.07
2022-07-29T05:07:07.726Z,20.05
2022-07-29T05:09:35.234Z,20.03
2022-07-29T05:12:02.865Z,20.00
2022-07-29T05:14:30.370Z,20.01
2022-07-29T05:16:58.162Z,19.98
2022-07-29T05:19:25.775Z,19.95
2022-07-29T05:21:54.694Z,19.92
2022-07-29T05:24:22.209Z,19.90
2022-07-29T05:26:49.748Z,19.92
2022-07-29T05:29:44.171Z,19.96
2022-07-29T05:32:05.429Z,20.01
2022-07-29T05:34:33.293Z,20.05
2022-07-29T05:37:02.137Z,20.10
2022-07-29T05:39:47.611Z,20.11
2022-07-29T05:42:16.760Z,20.15
2022-07-29T05:44:44.259Z,20.20
2022-07-29T05:47:12.465Z,20.25
2022-07-29T05:49:40.077Z,20.29
2022-07-29T05:52:08.934Z,20.32
2022-07-29T05:54:36.521Z,20.34
2022-07-29T05:57:04.233Z,20.37
2022-07-29T05:59:31.740Z,20.42
2022-07-29T06:01:59.339Z,20.48
2022-07-29T06:04:26.897Z,20.53
2022-07-29T06:06:54.444Z,20.58
2022-07-29T06:09:23.995Z,20.66
2022-07-29T06:11:51.541Z,20.73
2022-07-29T06:14:19.493Z,20.79
2022-07-29T06:16:48.254Z,20.84
2022-07-29T06:19:15.805Z,20.90
2022-07-29T06:21:44.533Z,20.94
2022-07-29T06:24:13.456Z,20.98
2022-07-29T06:26:43.232Z,21.04
2022-07-29T06:29:12.323Z,21.10
2022-07-29T06:31:40.752Z,21.13
2022-07-29T06:34:08.634Z,21.16
2022-07-29T06:36:37.799Z,21.21
2022-07-29T06:39:07.284Z,21.25
2022-07-29T06:41:35.457Z,21.29
2022-07-29T06:44:05.515Z,21.34
2022-07-29T06:46:33.216Z,21.42
2022-07-29T06:49:02.407Z,21.46
2022-07-29T06:51:30.288Z,21.51
2022-07-29T06:54:02.601Z,21.53
2022-07-29T06:56:31.794Z,21.54
2022-07-29T06:58:59.374Z,21.55
2022-07-29T07:01:30.449Z,21.56
2022-07-29T07:03:58.110Z,21.55
2022-07-29T07:06:25.630Z,21.54
2022-07-29T07:08:53.153Z,21.56
2022-07-29T07:11:20.900Z,21.62
2022-07-29T07:13:48.386Z,21.64
2022-07-29T07:16:16.031Z,21.67
2022-07-29T07:18:46.050Z,21.71
2022-07-29T07:21:18.836Z,21.76
2022-07-29T07:23:47.071Z,21.83
2022-07-29T07:26:14.653Z,21.87
2022-07-29T07:28:42.176Z,21.94
2022-07-29T07:31:10.413Z,21.99
2022-07-29T07:33:38.012Z,22.02
2022-07-29T07:36:07.213Z,22.01
2022-07-29T07:38:35.573Z,22.02
2022-07-29T07:41:03.667Z,22.03
2022-07-29T07:43:31.261Z,22.07
2022-07-29T07:45:59.381Z,22.15
2022-07-29T07:48:27.053Z,22.25
2022-07-29T07:50:54.586Z,22.35
2022-07-29T07:53:24.482Z,22.46
2022-07-29T07:58:39.575Z,22.65
2022-07-29T08:01:07.281Z,22.74
2022-07-29T08:03:35.004Z,22.84
2022-07-29T08:06:02.577Z,22.92
2022-07-29T08:08:31.426Z,23.02
2022-07-29T08:11:00.639Z,23.11
2022-07-29T08:13:31.326Z,23.19
2022-07-29T08:16:00.700Z,23.29
2022-07-29T08:18:29.506Z,23.36
2022-07-29T08:20:57.927Z,23.45
2022-07-29T08:23:29.314Z,23.58
2022-07-29T08:26:01.882Z,23.71
2022-07-29T08:28:29.382Z,23.82
2022-07-29T08:30:56.908Z,23.83
2022-07-29T08:33:24.396Z,23.83
2022-07-29T08:35:51.929Z,23.85
2022-07-29T08:38:19.440Z,23.88
2022-07-29T08:40:47.585Z,23.90
2022-07-29T08:43:16.688Z,23.94
2022-07-29T08:45:47.616Z,23.97
2022-07-29T08:48:16.840Z,24.00
2022-07-29T08:50:46.521Z,24.10
2022-07-29T08:53:16.449Z,24.20
2022-07-29T08:55:44.988Z,24.32
2022-07-29T08:58:15.756Z,24.45
2022-07-29T09:00:47.642Z,24.55
2022-07-29T09:03:22.295Z,24.66
2022-07-29T09:05:50.608Z,24.80
2022-07-29T09:08:18.709Z,24.89
2022-07-29T09:10:46.634Z,24.99
2022-07-29T09:13:14.235Z,25.12
2022-07-29T09:15:41.763Z,25.21
2022-07-29T09:18:19.561Z,25.30
2022-07-29T09:21:16.231Z,25.43
2022-07-29T09:24:02.232Z,25.59
2022-07-29T09:26:30.882Z,25.65
2022-07-29T09:28:59.173Z,25.73
2022-07-29T09:31:35.086Z,25.79
2022-07-29T09:34:04.689Z,25.88
2022-07-29T09:36:32.409Z,25.97
2022-07-29T09:39:01.355Z,26.07
2022-07-29T09:41:29.081Z,26.15
2022-07-29T09:43:57.929Z,26.20
2022-07-29T09:46:26.079Z,26.25
2022-07-29T09:49:11.299Z,26.34
2022-07-29T09:51:39.375Z,26.44
2022-07-29T09:54:25.059Z,26.56
2022-07-29T09:56:52.943Z,26.67
2022-07-29T09:59:23.266Z,26.77
2022-07-29T10:01:51.370Z,26.83
2022-07-29T10:04:20.902Z,26.89
2022-07-29T10:07:04.242Z,26.92
2022-07-29T10:09:32.973Z,27.02
2022-07-29T10:12:09.992Z,27.12
2022-07-29T10:14:38.136Z,27.18
2022-07-29T10:17:07.133Z,27.25
2022-07-29T10:19:36.933Z,27.32
2022-07-29T10:22:06.555Z,27.42
2022-07-29T10:24:35.288Z,27.49
2022-07-29T10:27:05.116Z,27.58
2022-07-29T10:29:32.840Z,27.63
2022-07-29T10:32:15.941Z,27.65
2022-07-29T10:35:03.341Z,27.69
2022-07-29T10:37:39.605Z,27.77
2022-07-29T10:40:41.919Z,27.88
2022-07-29T10:43:22.512Z,27.93
2022-07-29T10:45:51.579Z,27.98
2022-07-29T10:48:20.295Z,28.02
2022-07-29T10:50:56.802Z,28.04
2022-07-29T10:53:24.869Z,28.08
2022-07-29T10:55:53.833Z,28.13
2022-07-29T10:58:23.463Z,28.16
2022-07-29T11:00:52.622Z,28.18
2022-07-29T11:03:50.397Z,28.21
2022-07-29T11:58:11.265Z,28.46
2022-07-29T12:00:40.939Z,28.44
2022-07-29T12:03:10.103Z,28.44
2022-07-29T12:05:48.267Z,28.46
2022-07-29T12:08:21.438Z,28.44
2022-07-29T13:26:26.401Z,26.78
2022-07-29T13:28:54.000Z,26.75
2022-07-29T13:31:21.576Z,26.70
2022-07-29T13:33:49.241Z,26.66
2022-07-29T13:36:16.818Z,26.62
2022-07-29T15:05:02.945Z,25.80
2022-07-29T15:07:30.693Z,25.77
2022-07-29T15:09:59.782Z,25.75
2022-07-29T15:12:27.503Z,25.73
2022-07-29T15:14:55.136Z,25.72
2022-07-29T15:17:22.656Z,25.69
2022-07-29T16:51:47.695Z,24.80
2022-07-29T16:54:15.387Z,24.78
2022-07-29T16:56:43.053Z,24.77
2022-07-29T16:59:10.571Z,24.75
2022-07-29T17:01:38.139Z,24.75
2022-07-29T18:04:03.465Z,24.24
2022-07-29T18:06:31.054Z,24.25
2022-07-29T18:08:58.569Z,24.26
2022-07-29T18:11:26.198Z,24.25
2022-07-29T18:13:53.704Z,24.23
2022-07-29T19:15:39.519Z,23.39
2022-07-29T19:18:07.177Z,23.34
2022-07-29T19:20:34.970Z,23.29
2022-07-29T19:23:02.496Z,23.19
2022-07-29T19:25:30.059Z,23.14
2022-07-29T19:27:57.676Z,23.11
2022-07-29T20:16:13.559Z,22.50
2022-07-29T20:18:41.114Z,22.48
2022-07-29T20:21:08.644Z,22.44
2022-07-29T20:23:37.345Z,22.41
2022-07-29T20:26:09.312Z,22.42
2022-07-29T20:39:26.656Z,22.36
2022-07-29T20:41:54.190Z,22.35
2022-07-29T20:44:23.588Z,22.35
2022-07-29T20:46:51.310Z,22.37
2022-07-29T20:49:18.919Z,22.37
2022-07-29T20:51:46.504Z,22.36
2022-07-29T20:54:14.429Z,22.35
2022-07-29T20:56:43.279Z,22.31
2022-07-29T20:59:11.256Z,22.28
2022-07-29T21:01:38.801Z,22.24
2022-07-29T21:04:06.387Z,22.24
2022-07-29T21:06:34.643Z,22.20
2022-07-29T21:09:02.164Z,22.19
2022-07-29T21:11:44.182Z,22.20
2022-07-29T21:14:21.475Z,22.19
2022-07-29T21:16:50.151Z,22.16
2022-07-29T21:19:17.684Z,22.14
2022-07-29T21:21:45.238Z,22.10
2022-07-29T21:24:12.736Z,22.05
2022-07-29T21:26:40.258Z,22.03
2022-07-29T21:29:06.885Z,22.01
2022-07-29T21:31:35.719Z,22.01
2022-07-29T21:34:03.254Z,22.00
2022-07-29T21:39:18.262Z,21.95
2022-07-29T21:41:45.794Z,21.94
2022-07-29T21:44:13.330Z,21.94
2022-07-29T21:46:42.184Z,21.93
2022-07-29T21:49:09.733Z,21.91
2022-07-29T21:51:37.367Z,21.92
2022-07-29T21:54:05.502Z,21.90
2022-07-29T21:56:34.039Z,21.90
2022-07-29T21:59:03.239Z,21.87
2022-07-29T22:01:38.999Z,21.86
2022-07-29T22:04:09.306Z,21.83
2022-07-29T22:06:36.831Z,21.80
2022-07-29T22:09:04.623Z,21.81
2022-07-29T22:11:32.389Z,21.79
2022-07-29T22:14:00.121Z,21.77
2022-07-29T22:16:27.697Z,21.76
2022-07-29T22:18:55.475Z,21.76
2022-07-29T22:21:24.390Z,21.72
2022-07-29T22:23:51.917Z,21.67
2022-07-29T22:26:19.458Z,21.60
2022-07-29T22:28:46.951Z,21.55
2022-07-29T22:31:14.521Z,21.48
2022-07-29T22:33:42.170Z,21.44
2022-07-29T22:36:10.432Z,21.46
2022-07-29T22:38:39.322Z,21.46
2022-07-29T22:41:06.874Z,21.48
2022-07-29T22:43:35.680Z,21.46
2022-07-29T22:46:03.276Z,21.43
2022-07-29T22:48:31.218Z,21.40
2022-07-29T22:50:58.744Z,21.34
2022-07-29T22:53:26.284Z,21.30
2022-07-29T22:55:55.351Z,21.26
2022-07-29T22:58:22.844Z,21.26
2022-07-29T23:00:50.394Z,21.23
2022-07-29T23:03:17.972Z,21.22
2022-07-29T23:05:45.612Z,21.19
2022-07-29T23:08:13.159Z,21.15
2022-07-29T23:10:41.694Z,21.13
2022-07-29T23:13:10.921Z,21.10
2022-07-29T23:15:38.424Z,21.10
2022-07-29T23:18:06.027Z,21.05
2022-07-29T23:20:33.670Z,21.03
2022-07-29T23:23:01.228Z,20.99
2022-07-29T23:25:28.775Z,20.97
2022-07-29T23:27:56.359Z,20.96
2022-07-29T23:30:25.618Z,20.92
2022-07-29T23:32:53.242Z,20.90
2022-07-29T23:35:21.029Z,20.88
2022-07-29T23:37:48.774Z,20.83
2022-07-29T23:40:16.863Z,20.79
2022-07-29T23:42:44.618Z,20.76
2022-07-29T23:45:14.157Z,20.76
2022-07-29T23:47:43.112Z,20.76
2022-07-29T23:50:12.967Z,20.73
2022-07-29T23:52:41.426Z,20.69
2022-07-29T23:55:37.100Z,20.66
2022-07-29T23:57:57.257Z,20.63
